sensor_id;sensor_type;location;lat;lon;timestamp;temperature;humidity
43671;DHT22;29267;50.906;7.248;2023-09-07T00:02:20;18.20;99.90
43671;DHT22;29267;50.906;7.248;2023-09-07T00:04:45;18.20;99.90
43671;DHT22;29267;50.906;7.248;2023-09-07T00:07:11;18.20;99.90
43671;DHT22;29267;50.906;7.248;2023-09-07T00:09:37;18.20;99.90
43671;DHT22;29267;50.906;7.248;2023-09-07T00:12:03;18.20;99.90
43671;DHT22;29267;50.906;7.248;2023-09-07T00:14:29;18.20;99.90
43671;DHT22;29267;50.906;7.248;2023-09-07T00:16:54;18.20;99.90
43671;DHT22;29267;50.906;7.248;2023-09-07T00:19:20;18.20;99.90
43671;DHT22;29267;50.906;7.248;2023-09-07T00:21:45;18.20;99.90
43671;DHT22;29267;50.906;7.248;2023-09-07T00:24:11;18.20;99.90
43671;DHT22;29267;50.906;7.248;2023-09-07T00:26:36;18.20;99.90
43671;DHT22;29267;50.906;7.248;2023-09-07T00:29:02;18.20;99.90
43671;DHT22;29267;50.906;7.248;2023-09-07T00:31:27;18.20;99.90
43671;DHT22;29267;50.906;7.248;2023-09-07T00:33:53;18.20;99.90
43671;DHT22;29267;50.906;7.248;2023-09-07T00:36:19;18.20;99.90
43671;DHT22;29267;50.906;7.248;2023-09-07T00:38:44;18.20;99.90
43671;DHT22;29267;50.906;7.248;2023-09-07T00:41:11;18.20;99.90
43671;DHT22;29267;50.906;7.248;2023-09-07T00:43:37;18.20;99.90
43671;DHT22;29267;50.906;7.248;2023-09-07T00:46:05;18.20;99.90
43671;DHT22;29267;50.906;7.248;2023-09-07T00:48:30;18.20;99.90
43671;DHT22;29267;50.906;7.248;2023-09-07T00:50:56;18.20;99.90
43671;DHT22;29267;50.906;7.248;2023-09-07T00:53:22;18.30;99.90
43671;DHT22;29267;50.906;7.248;2023-09-07T00:55:50;18.30;99.90
43671;DHT22;29267;50.906;7.248;2023-09-07T00:58:15;18.20;99.90
43671;DHT22;29267;50.906;7.248;2023-09-07T01:00:41;18.20;99.90
43671;DHT22;29267;50.906;7.248;2023-09-07T01:03:07;18.20;99.90
43671;DHT22;29267;50.906;7.248;2023-09-07T01:05:43;18.20;99.90
43671;DHT22;29267;50.906;7.248;2023-09-07T01:08:25;18.20;99.90
43671;DHT22;29267;50.906;7.248;2023-09-07T01:10:51;18.20;99.90
43671;DHT22;29267;50.906;7.248;2023-09-07T01:13:18;18.20;99.90
43671;DHT22;29267;50.906;7.248;2023-09-07T01:15:44;18.20;99.90
43671;DHT22;29267;50.906;7.248;2023-09-07T01:18:10;18.20;99.90
43671;DHT22;29267;50.906;7.248;2023-09-07T01:20:36;18.10;99.90
43671;DHT22;29267;50.906;7.248;2023-09-07T01:23:04;18.10;99.90
43671;DHT22;29267;50.906;7.248;2023-09-07T01:25:30;18.10;99.90
43671;DHT22;29267;50.906;7.248;2023-09-07T01:27:57;18.00;99.90
43671;DHT22;29267;50.906;7.248;2023-09-07T01:30:24;18.00;99.90
43671;DHT22;29267;50.906;7.248;2023-09-07T01:32:50;17.90;99.90
43671;DHT22;29267;50.906;7.248;2023-09-07T01:35:16;17.90;99.90
43671;DHT22;29267;50.906;7.248;2023-09-07T01:37:43;17.80;99.90
43671;DHT22;29267;50.906;7.248;2023-09-07T01:40:09;17.80;99.90
43671;DHT22;29267;50.906;7.248;2023-09-07T01:42:35;17.80;99.90
43671;DHT22;29267;50.906;7.248;2023-09-07T01:45:00;17.70;99.90
43671;DHT22;29267;50.906;7.248;2023-09-07T01:47:26;17.60;99.90
43671;DHT22;29267;50.906;7.248;2023-09-07T01:49:52;17.50;99.90
43671;DHT22;29267;50.906;7.248;2023-09-07T01:52:17;17.40;99.90
43671;DHT22;29267;50.906;7.248;2023-09-07T01:54:43;17.40;99.90
43671;DHT22;29267;50.906;7.248;2023-09-07T01:57:08;17.40;99.90
43671;DHT22;29267;50.906;7.248;2023-09-07T01:59:34;17.40;99.90
43671;DHT22;29267;50.906;7.248;2023-09-07T02:02:00;17.40;99.90
43671;DHT22;29267;50.906;7.248;2023-09-07T02:04:25;17.50;99.90
43671;DHT22;29267;50.906;7.248;2023-09-07T02:06:51;17.50;99.90
43671;DHT22;29267;50.906;7.248;2023-09-07T02:09:16;17.50;99.90
43671;DHT22;29267;50.906;7.248;2023-09-07T02:11:42;17.50;99.90
43671;DHT22;29267;50.906;7.248;2023-09-07T02:14:07;17.60;99.90
43671;DHT22;29267;50.906;7.248;2023-09-07T02:16:34;17.60;99.90
43671;DHT22;29267;50.906;7.248;2023-09-07T02:19:02;17.70;99.90
43671;DHT22;29267;50.906;7.248;2023-09-07T02:21:29;17.70;99.90
43671;DHT22;29267;50.906;7.248;2023-09-07T02:23:54;17.70;99.90
43671;DHT22;29267;50.906;7.248;2023-09-07T02:26:20;17.60;99.90
43671;DHT22;29267;50.906;7.248;2023-09-07T02:28:45;17.60;99.90
43671;DHT22;29267;50.906;7.248;2023-09-07T02:31:11;17.40;99.90
43671;DHT22;29267;50.906;7.248;2023-09-07T02:33:36;17.40;99.90
43671;DHT22;29267;50.906;7.248;2023-09-07T02:36:02;17.30;99.90
43671;DHT22;29267;50.906;7.248;2023-09-07T02:38:28;17.20;99.90
43671;DHT22;29267;50.906;7.248;2023-09-07T02:40:55;17.20;99.90
43671;DHT22;29267;50.906;7.248;2023-09-07T02:43:21;17.10;99.90
43671;DHT22;29267;50.906;7.248;2023-09-07T02:45:49;17.10;99.90
43671;DHT22;29267;50.906;7.248;2023-09-07T02:48:15;17.00;99.90
43671;DHT22;29267;50.906;7.248;2023-09-07T02:50:41;16.90;99.90
43671;DHT22;29267;50.906;7.248;2023-09-07T02:53:08;16.90;99.90
43671;DHT22;29267;50.906;7.248;2023-09-07T02:55:33;16.90;99.90
43671;DHT22;29267;50.906;7.248;2023-09-07T02:58:03;17.00;99.90
43671;DHT22;29267;50.906;7.248;2023-09-07T03:00:28;17.00;99.90
43671;DHT22;29267;50.906;7.248;2023-09-07T03:02:54;17.00;99.90
43671;DHT22;29267;50.906;7.248;2023-09-07T03:05:20;17.00;99.90
43671;DHT22;29267;50.906;7.248;2023-09-07T03:07:46;17.10;99.90
43671;DHT22;29267;50.906;7.248;2023-09-07T03:10:13;17.10;99.90
43671;DHT22;29267;50.906;7.248;2023-09-07T03:12:39;17.10;99.90
43671;DHT22;29267;50.906;7.248;2023-09-07T03:15:05;17.10;99.90
43671;DHT22;29267;50.906;7.248;2023-09-07T03:17:31;17.20;99.90
43671;DHT22;29267;50.906;7.248;2023-09-07T03:19:57;17.30;99.90
43671;DHT22;29267;50.906;7.248;2023-09-07T03:22:23;17.30;99.90
43671;DHT22;29267;50.906;7.248;2023-09-07T03:24:52;17.30;99.90
43671;DHT22;29267;50.906;7.248;2023-09-07T03:27:17;17.30;99.90
43671;DHT22;29267;50.906;7.248;2023-09-07T03:29:46;17.30;99.90
43671;DHT22;29267;50.906;7.248;2023-09-07T03:32:11;17.30;99.90
43671;DHT22;29267;50.906;7.248;2023-09-07T03:34:37;17.40;99.90
43671;DHT22;29267;50.906;7.248;2023-09-07T03:37:03;17.40;99.90
43671;DHT22;29267;50.906;7.248;2023-09-07T03:39:31;17.40;99.90
43671;DHT22;29267;50.906;7.248;2023-09-07T03:41:57;17.30;99.90
43671;DHT22;29267;50.906;7.248;2023-09-07T03:44:23;17.20;99.90
43671;DHT22;29267;50.906;7.248;2023-09-07T03:46:48;17.20;99.90
43671;DHT22;29267;50.906;7.248;2023-09-07T03:49:14;17.20;99.90
43671;DHT22;29267;50.906;7.248;2023-09-07T03:51:39;17.10;99.90
43671;DHT22;29267;50.906;7.248;2023-09-07T03:54:05;17.10;99.90
43671;DHT22;29267;50.906;7.248;2023-09-07T03:56:31;17.10;99.90
43671;DHT22;29267;50.906;7.248;2023-09-07T03:58:56;17.00;99.90
43671;DHT22;29267;50.906;7.248;2023-09-07T04:01:22;16.90;99.90
43671;DHT22;29267;50.906;7.248;2023-09-07T04:03:47;16.80;99.90
43671;DHT22;29267;50.906;7.248;2023-09-07T04:06:13;16.80;99.90
43671;DHT22;29267;50.906;7.248;2023-09-07T04:08:39;16.70;99.90
43671;DHT22;29267;50.906;7.248;2023-09-07T04:11:05;16.60;99.90
43671;DHT22;29267;50.906;7.248;2023-09-07T04:13:32;16.60;99.90
43671;DHT22;29267;50.906;7.248;2023-09-07T04:15:57;16.60;99.90
43671;DHT22;29267;50.906;7.248;2023-09-07T04:18:23;16.60;99.90
43671;DHT22;29267;50.906;7.248;2023-09-07T04:20:49;16.50;99.90
43671;DHT22;29267;50.906;7.248;2023-09-07T04:23:14;16.50;99.90
43671;DHT22;29267;50.906;7.248;2023-09-07T04:25:40;16.50;99.90
43671;DHT22;29267;50.906;7.248;2023-09-07T04:28:06;16.50;99.90
43671;DHT22;29267;50.906;7.248;2023-09-07T04:30:33;16.50;99.90
43671;DHT22;29267;50.906;7.248;2023-09-07T04:32:58;16.50;99.90
43671;DHT22;29267;50.906;7.248;2023-09-07T04:35:29;16.50;99.90
43671;DHT22;29267;50.906;7.248;2023-09-07T04:37:56;16.60;99.90
43671;DHT22;29267;50.906;7.248;2023-09-07T04:40:22;16.60;99.90
43671;DHT22;29267;50.906;7.248;2023-09-07T04:42:48;16.60;99.90
43671;DHT22;29267;50.906;7.248;2023-09-07T04:45:13;16.60;99.90
43671;DHT22;29267;50.906;7.248;2023-09-07T04:47:39;16.70;99.90
43671;DHT22;29267;50.906;7.248;2023-09-07T04:50:05;16.60;99.90
43671;DHT22;29267;50.906;7.248;2023-09-07T04:52:31;16.60;99.90
43671;DHT22;29267;50.906;7.248;2023-09-07T04:54:57;16.60;99.90
43671;DHT22;29267;50.906;7.248;2023-09-07T04:57:23;16.60;99.90
43671;DHT22;29267;50.906;7.248;2023-09-07T04:59:49;16.60;99.90
43671;DHT22;29267;50.906;7.248;2023-09-07T05:02:14;16.60;99.90
43671;DHT22;29267;50.906;7.248;2023-09-07T05:04:40;16.60;99.90
43671;DHT22;29267;50.906;7.248;2023-09-07T05:07:05;16.60;99.90
43671;DHT22;29267;50.906;7.248;2023-09-07T05:09:31;16.60;99.90
43671;DHT22;29267;50.906;7.248;2023-09-07T05:11:57;16.60;99.90
43671;DHT22;29267;50.906;7.248;2023-09-07T05:14:25;16.50;99.90
43671;DHT22;29267;50.906;7.248;2023-09-07T05:16:51;16.50;99.90
43671;DHT22;29267;50.906;7.248;2023-09-07T05:19:17;16.40;99.90
43671;DHT22;29267;50.906;7.248;2023-09-07T05:21:42;16.40;99.90
43671;DHT22;29267;50.906;7.248;2023-09-07T05:24:08;16.40;99.90
43671;DHT22;29267;50.906;7.248;2023-09-07T05:26:33;16.30;99.90
43671;DHT22;29267;50.906;7.248;2023-09-07T05:28:59;16.30;99.90
43671;DHT22;29267;50.906;7.248;2023-09-07T05:31:25;16.30;99.90
43671;DHT22;29267;50.906;7.248;2023-09-07T05:33:50;16.30;99.90
43671;DHT22;29267;50.906;7.248;2023-09-07T05:36:17;16.40;99.90
43671;DHT22;29267;50.906;7.248;2023-09-07T05:38:42;16.40;99.90
43671;DHT22;29267;50.906;7.248;2023-09-07T05:41:08;16.40;99.90
43671;DHT22;29267;50.906;7.248;2023-09-07T05:43:34;16.50;99.90
43671;DHT22;29267;50.906;7.248;2023-09-07T05:45:59;16.60;99.90
43671;DHT22;29267;50.906;7.248;2023-09-07T05:48:25;16.70;99.90
43671;DHT22;29267;50.906;7.248;2023-09-07T05:50:50;16.80;99.90
43671;DHT22;29267;50.906;7.248;2023-09-07T05:53:18;16.90;99.90
43671;DHT22;29267;50.906;7.248;2023-09-07T05:55:44;17.10;99.90
43671;DHT22;29267;50.906;7.248;2023-09-07T05:58:09;17.20;99.90
43671;DHT22;29267;50.906;7.248;2023-09-07T06:00:36;17.40;99.90
43671;DHT22;29267;50.906;7.248;2023-09-07T06:03:02;17.70;99.90
43671;DHT22;29267;50.906;7.248;2023-09-07T06:05:28;18.30;99.90
43671;DHT22;29267;50.906;7.248;2023-09-07T06:07:54;18.90;99.90
43671;DHT22;29267;50.906;7.248;2023-09-07T06:10:19;19.30;99.90
43671;DHT22;29267;50.906;7.248;2023-09-07T06:12:45;19.80;99.90
43671;DHT22;29267;50.906;7.248;2023-09-07T06:15:11;20.00;99.90
43671;DHT22;29267;50.906;7.248;2023-09-07T06:17:36;19.90;99.90
43671;DHT22;29267;50.906;7.248;2023-09-07T06:20:02;19.90;99.90
43671;DHT22;29267;50.906;7.248;2023-09-07T06:22:28;19.80;99.90
43671;DHT22;29267;50.906;7.248;2023-09-07T06:24:54;19.80;99.90
43671;DHT22;29267;50.906;7.248;2023-09-07T06:27:19;19.60;99.90
43671;DHT22;29267;50.906;7.248;2023-09-07T06:29:45;19.70;99.90
43671;DHT22;29267;50.906;7.248;2023-09-07T06:32:11;19.80;99.90
43671;DHT22;29267;50.906;7.248;2023-09-07T06:34:36;19.80;99.90
43671;DHT22;29267;50.906;7.248;2023-09-07T06:37:02;19.80;99.90
43671;DHT22;29267;50.906;7.248;2023-09-07T06:39:27;19.90;99.90
43671;DHT22;29267;50.906;7.248;2023-09-07T06:41:53;19.90;99.90
43671;DHT22;29267;50.906;7.248;2023-09-07T06:44:18;19.90;99.90
43671;DHT22;29267;50.906;7.248;2023-09-07T06:46:44;20.00;99.90
43671;DHT22;29267;50.906;7.248;2023-09-07T06:49:10;20.20;99.90
43671;DHT22;29267;50.906;7.248;2023-09-07T06:51:35;20.30;99.90
43671;DHT22;29267;50.906;7.248;2023-09-07T06:54:01;20.60;99.90
43671;DHT22;29267;50.906;7.248;2023-09-07T06:56:26;21.20;99.90
43671;DHT22;29267;50.906;7.248;2023-09-07T06:58:52;22.30;99.90
43671;DHT22;29267;50.906;7.248;2023-09-07T07:01:19;24.00;99.60
43671;DHT22;29267;50.906;7.248;2023-09-07T07:03:44;25.80;96.40
43671;DHT22;29267;50.906;7.248;2023-09-07T07:06:10;27.00;93.80
43671;DHT22;29267;50.906;7.248;2023-09-07T07:08:35;28.00;92.50
43671;DHT22;29267;50.906;7.248;2023-09-07T07:11:01;28.40;90.50
43671;DHT22;29267;50.906;7.248;2023-09-07T07:13:26;28.70;89.90
43671;DHT22;29267;50.906;7.248;2023-09-07T07:15:52;29.40;88.40
43671;DHT22;29267;50.906;7.248;2023-09-07T07:18:18;29.90;86.00
43671;DHT22;29267;50.906;7.248;2023-09-07T07:20:44;30.10;85.00
43671;DHT22;29267;50.906;7.248;2023-09-07T07:23:10;30.20;83.80
43671;DHT22;29267;50.906;7.248;2023-09-07T07:25:37;31.20;81.30
43671;DHT22;29267;50.906;7.248;2023-09-07T07:28:03;31.00;81.50
43671;DHT22;29267;50.906;7.248;2023-09-07T07:30:35;31.20;83.70
43671;DHT22;29267;50.906;7.248;2023-09-07T07:33:02;30.60;80.90
43671;DHT22;29267;50.906;7.248;2023-09-07T07:35:29;30.50;83.00
43671;DHT22;29267;50.906;7.248;2023-09-07T07:37:55;30.70;81.60
43671;DHT22;29267;50.906;7.248;2023-09-07T07:40:20;31.50;80.60
43671;DHT22;29267;50.906;7.248;2023-09-07T07:42:47;31.50;79.60
43671;DHT22;29267;50.906;7.248;2023-09-07T07:45:13;31.30;78.90
43671;DHT22;29267;50.906;7.248;2023-09-07T07:47:40;31.40;81.60
43671;DHT22;29267;50.906;7.248;2023-09-07T07:50:06;31.30;77.60
43671;DHT22;29267;50.906;7.248;2023-09-07T07:52:32;31.20;80.60
43671;DHT22;29267;50.906;7.248;2023-09-07T07:54:58;31.60;80.30
43671;DHT22;29267;50.906;7.248;2023-09-07T07:57:23;32.60;78.20
43671;DHT22;29267;50.906;7.248;2023-09-07T07:59:49;33.30;76.90
43671;DHT22;29267;50.906;7.248;2023-09-07T08:02:14;32.20;76.30
43671;DHT22;29267;50.906;7.248;2023-09-07T08:04:40;32.50;75.70
43671;DHT22;29267;50.906;7.248;2023-09-07T08:07:06;32.50;77.70
43671;DHT22;29267;50.906;7.248;2023-09-07T08:09:33;32.30;77.20
43671;DHT22;29267;50.906;7.248;2023-09-07T08:11:59;32.30;76.70
43671;DHT22;29267;50.906;7.248;2023-09-07T08:14:35;32.50;76.60
43671;DHT22;29267;50.906;7.248;2023-09-07T08:17:00;32.30;77.60
43671;DHT22;29267;50.906;7.248;2023-09-07T08:19:26;32.60;77.70
43671;DHT22;29267;50.906;7.248;2023-09-07T08:21:53;32.50;77.70
43671;DHT22;29267;50.906;7.248;2023-09-07T08:24:19;32.90;76.60
43671;DHT22;29267;50.906;7.248;2023-09-07T08:26:44;32.90;77.40
43671;DHT22;29267;50.906;7.248;2023-09-07T08:29:10;33.70;76.90
43671;DHT22;29267;50.906;7.248;2023-09-07T08:31:39;33.60;75.80
43671;DHT22;29267;50.906;7.248;2023-09-07T08:34:06;33.40;75.90
43671;DHT22;29267;50.906;7.248;2023-09-07T08:36:34;34.00;74.90
43671;DHT22;29267;50.906;7.248;2023-09-07T08:39:07;33.60;74.90
43671;DHT22;29267;50.906;7.248;2023-09-07T08:41:41;33.30;74.70
43671;DHT22;29267;50.906;7.248;2023-09-07T08:44:16;33.10;74.30
43671;DHT22;29267;50.906;7.248;2023-09-07T08:46:43;33.30;75.20
43671;DHT22;29267;50.906;7.248;2023-09-07T08:49:09;32.80;75.60
43671;DHT22;29267;50.906;7.248;2023-09-07T08:51:37;32.90;76.80
43671;DHT22;29267;50.906;7.248;2023-09-07T08:54:03;33.10;73.80
43671;DHT22;29267;50.906;7.248;2023-09-07T08:56:29;33.40;75.00
43671;DHT22;29267;50.906;7.248;2023-09-07T08:58:55;33.30;75.60
43671;DHT22;29267;50.906;7.248;2023-09-07T09:01:21;33.70;74.80
43671;DHT22;29267;50.906;7.248;2023-09-07T09:03:48;33.50;73.60
43671;DHT22;29267;50.906;7.248;2023-09-07T09:06:19;33.30;76.10
43671;DHT22;29267;50.906;7.248;2023-09-07T09:08:46;33.50;76.50
43671;DHT22;29267;50.906;7.248;2023-09-07T09:11:14;33.70;74.00
43671;DHT22;29267;50.906;7.248;2023-09-07T09:13:40;33.60;76.00
43671;DHT22;29267;50.906;7.248;2023-09-07T09:16:06;33.20;76.50
43671;DHT22;29267;50.906;7.248;2023-09-07T09:18:32;33.60;75.60
43671;DHT22;29267;50.906;7.248;2023-09-07T09:20:58;33.80;75.00
43671;DHT22;29267;50.906;7.248;2023-09-07T09:23:33;33.80;74.20
43671;DHT22;29267;50.906;7.248;2023-09-07T09:26:00;33.40;74.00
43671;DHT22;29267;50.906;7.248;2023-09-07T09:28:26;33.20;75.00
43671;DHT22;29267;50.906;7.248;2023-09-07T09:30:57;32.40;76.10
43671;DHT22;29267;50.906;7.248;2023-09-07T09:33:23;32.50;78.70
43671;DHT22;29267;50.906;7.248;2023-09-07T09:35:49;32.80;76.40
43671;DHT22;29267;50.906;7.248;2023-09-07T09:38:15;32.90;75.20
43671;DHT22;29267;50.906;7.248;2023-09-07T09:40:42;33.00;75.90
43671;DHT22;29267;50.906;7.248;2023-09-07T09:43:08;32.70;75.20
43671;DHT22;29267;50.906;7.248;2023-09-07T09:45:34;32.80;77.00
43671;DHT22;29267;50.906;7.248;2023-09-07T09:48:01;33.30;75.50
43671;DHT22;29267;50.906;7.248;2023-09-07T09:50:28;33.50;76.50
43671;DHT22;29267;50.906;7.248;2023-09-07T09:52:54;33.10;76.70
43671;DHT22;29267;50.906;7.248;2023-09-07T09:55:20;32.90;77.70
43671;DHT22;29267;50.906;7.248;2023-09-07T09:57:47;32.20;77.50
43671;DHT22;29267;50.906;7.248;2023-09-07T10:00:13;32.00;79.40
43671;DHT22;29267;50.906;7.248;2023-09-07T10:03:31;31.70;78.30
43671;DHT22;29267;50.906;7.248;2023-09-07T10:06:17;31.40;78.90
43671;DHT22;29267;50.906;7.248;2023-09-07T10:08:59;31.00;79.60
43671;DHT22;29267;50.906;7.248;2023-09-07T10:11:31;30.70;79.50
43671;DHT22;29267;50.906;7.248;2023-09-07T10:13:58;30.40;80.80
43671;DHT22;29267;50.906;7.248;2023-09-07T10:16:24;30.60;82.60
43671;DHT22;29267;50.906;7.248;2023-09-07T10:18:49;30.30;83.20
43671;DHT22;29267;50.906;7.248;2023-09-07T10:21:15;30.40;83.10
43671;DHT22;29267;50.906;7.248;2023-09-07T10:23:42;30.30;82.70
43671;DHT22;29267;50.906;7.248;2023-09-07T10:26:16;30.20;83.20
43671;DHT22;29267;50.906;7.248;2023-09-07T10:28:43;30.40;84.10
43671;DHT22;29267;50.906;7.248;2023-09-07T10:31:19;30.30;80.80
43671;DHT22;29267;50.906;7.248;2023-09-07T10:33:46;30.00;81.40
43671;DHT22;29267;50.906;7.248;2023-09-07T10:36:40;29.70;82.10
43671;DHT22;29267;50.906;7.248;2023-09-07T10:39:06;29.70;82.00
43671;DHT22;29267;50.906;7.248;2023-09-07T10:41:43;29.50;82.60
43671;DHT22;29267;50.906;7.248;2023-09-07T10:44:09;29.40;83.70
43671;DHT22;29267;50.906;7.248;2023-09-07T10:46:39;29.60;85.40
43671;DHT22;29267;50.906;7.248;2023-09-07T10:49:07;29.70;85.00
43671;DHT22;29267;50.906;7.248;2023-09-07T10:51:41;29.70;83.90
43671;DHT22;29267;50.906;7.248;2023-09-07T10:54:17;29.70;85.70
43671;DHT22;29267;50.906;7.248;2023-09-07T10:56:44;29.70;85.30
43671;DHT22;29267;50.906;7.248;2023-09-07T10:59:12;29.70;85.00
43671;DHT22;29267;50.906;7.248;2023-09-07T11:01:38;29.50;81.90
43671;DHT22;29267;50.906;7.248;2023-09-07T11:04:04;29.40;82.10
43671;DHT22;29267;50.906;7.248;2023-09-07T11:06:30;29.30;83.20
43671;DHT22;29267;50.906;7.248;2023-09-07T11:09:02;29.20;81.90
43671;DHT22;29267;50.906;7.248;2023-09-07T11:11:31;29.20;84.30
43671;DHT22;29267;50.906;7.248;2023-09-07T11:13:59;29.10;84.20
43671;DHT22;29267;50.906;7.248;2023-09-07T11:16:25;29.20;84.20
43671;DHT22;29267;50.906;7.248;2023-09-07T11:18:53;29.00;84.50
43671;DHT22;29267;50.906;7.248;2023-09-07T11:21:20;28.80;84.50
43671;DHT22;29267;50.906;7.248;2023-09-07T11:23:46;28.60;83.80
43671;DHT22;29267;50.906;7.248;2023-09-07T11:26:11;28.60;84.90
43671;DHT22;29267;50.906;7.248;2023-09-07T11:28:38;28.50;84.30
43671;DHT22;29267;50.906;7.248;2023-09-07T11:31:03;28.50;85.40
43671;DHT22;29267;50.906;7.248;2023-09-07T11:33:32;28.50;84.90
43671;DHT22;29267;50.906;7.248;2023-09-07T11:35:58;28.60;86.20
43671;DHT22;29267;50.906;7.248;2023-09-07T11:38:29;28.50;85.90
43671;DHT22;29267;50.906;7.248;2023-09-07T11:40:54;28.60;86.60
43671;DHT22;29267;50.906;7.248;2023-09-07T11:43:20;28.50;84.00
43671;DHT22;29267;50.906;7.248;2023-09-07T11:45:46;28.50;84.10
43671;DHT22;29267;50.906;7.248;2023-09-07T11:48:12;28.40;85.00
43671;DHT22;29267;50.906;7.248;2023-09-07T11:50:38;28.40;86.40
43671;DHT22;29267;50.906;7.248;2023-09-07T11:53:05;28.40;87.20
43671;DHT22;29267;50.906;7.248;2023-09-07T11:55:31;28.50;86.30
43671;DHT22;29267;50.906;7.248;2023-09-07T11:57:56;28.40;87.00
43671;DHT22;29267;50.906;7.248;2023-09-07T12:00:23;28.50;87.10
43671;DHT22;29267;50.906;7.248;2023-09-07T12:02:49;28.60;87.30
43671;DHT22;29267;50.906;7.248;2023-09-07T12:05:14;28.50;87.50
43671;DHT22;29267;50.906;7.248;2023-09-07T12:07:41;28.50;85.90
43671;DHT22;29267;50.906;7.248;2023-09-07T12:10:08;28.60;88.20
43671;DHT22;29267;50.906;7.248;2023-09-07T12:12:39;28.60;86.80
43671;DHT22;29267;50.906;7.248;2023-09-07T12:15:06;28.50;86.90
43671;DHT22;29267;50.906;7.248;2023-09-07T12:17:32;28.50;86.50
43671;DHT22;29267;50.906;7.248;2023-09-07T12:19:58;28.50;87.70
43671;DHT22;29267;50.906;7.248;2023-09-07T12:22:25;28.60;88.10
43671;DHT22;29267;50.906;7.248;2023-09-07T12:24:50;28.60;87.30
43671;DHT22;29267;50.906;7.248;2023-09-07T12:27:16;28.60;87.90
43671;DHT22;29267;50.906;7.248;2023-09-07T12:29:42;28.50;86.10
43671;DHT22;29267;50.906;7.248;2023-09-07T12:32:07;28.50;87.30
43671;DHT22;29267;50.906;7.248;2023-09-07T12:34:33;28.50;88.70
43671;DHT22;29267;50.906;7.248;2023-09-07T12:36:58;28.60;88.50
43671;DHT22;29267;50.906;7.248;2023-09-07T12:39:24;28.60;85.40
43671;DHT22;29267;50.906;7.248;2023-09-07T12:41:50;28.60;85.80
43671;DHT22;29267;50.906;7.248;2023-09-07T12:44:15;28.60;83.30
43671;DHT22;29267;50.906;7.248;2023-09-07T12:46:43;28.60;83.90
43671;DHT22;29267;50.906;7.248;2023-09-07T12:49:09;28.60;84.60
43671;DHT22;29267;50.906;7.248;2023-09-07T12:51:35;28.70;86.10
43671;DHT22;29267;50.906;7.248;2023-09-07T12:54:00;28.60;86.80
43671;DHT22;29267;50.906;7.248;2023-09-07T12:56:26;28.60;88.20
43671;DHT22;29267;50.906;7.248;2023-09-07T12:58:51;28.50;89.10
43671;DHT22;29267;50.906;7.248;2023-09-07T13:01:17;28.50;89.30
43671;DHT22;29267;50.906;7.248;2023-09-07T13:03:44;28.50;89.30
43671;DHT22;29267;50.906;7.248;2023-09-07T13:06:10;28.50;88.70
43671;DHT22;29267;50.906;7.248;2023-09-07T13:08:35;28.60;86.60
43671;DHT22;29267;50.906;7.248;2023-09-07T13:11:01;28.60;88.50
43671;DHT22;29267;50.906;7.248;2023-09-07T13:13:27;28.50;86.40
43671;DHT22;29267;50.906;7.248;2023-09-07T13:15:57;28.40;85.70
43671;DHT22;29267;50.906;7.248;2023-09-07T13:18:23;28.30;86.80
43671;DHT22;29267;50.906;7.248;2023-09-07T13:20:50;28.30;87.70
43671;DHT22;29267;50.906;7.248;2023-09-07T13:23:17;28.30;86.80
43671;DHT22;29267;50.906;7.248;2023-09-07T13:25:43;28.30;88.80
43671;DHT22;29267;50.906;7.248;2023-09-07T13:28:09;28.20;88.40
43671;DHT22;29267;50.906;7.248;2023-09-07T13:30:34;28.20;87.10
43671;DHT22;29267;50.906;7.248;2023-09-07T13:33:00;28.10;87.30
43671;DHT22;29267;50.906;7.248;2023-09-07T13:35:26;28.10;87.50
43671;DHT22;29267;50.906;7.248;2023-09-07T13:37:51;28.10;86.10
43671;DHT22;29267;50.906;7.248;2023-09-07T13:40:17;28.20;86.20
43671;DHT22;29267;50.906;7.248;2023-09-07T13:42:45;28.10;87.00
43671;DHT22;29267;50.906;7.248;2023-09-07T13:45:10;28.10;86.70
43671;DHT22;29267;50.906;7.248;2023-09-07T13:47:36;28.00;86.00
43671;DHT22;29267;50.906;7.248;2023-09-07T13:50:02;28.00;86.50
43671;DHT22;29267;50.906;7.248;2023-09-07T13:52:28;28.00;86.20
43671;DHT22;29267;50.906;7.248;2023-09-07T13:54:53;28.00;85.80
43671;DHT22;29267;50.906;7.248;2023-09-07T13:57:19;28.00;85.80
43671;DHT22;29267;50.906;7.248;2023-09-07T13:59:45;28.00;85.40
43671;DHT22;29267;50.906;7.248;2023-09-07T14:02:10;28.00;86.30
43671;DHT22;29267;50.906;7.248;2023-09-07T14:04:36;28.00;85.50
43671;DHT22;29267;50.906;7.248;2023-09-07T14:07:01;28.00;85.80
43671;DHT22;29267;50.906;7.248;2023-09-07T14:09:27;28.00;85.20
43671;DHT22;29267;50.906;7.248;2023-09-07T14:11:52;28.00;84.50
43671;DHT22;29267;50.906;7.248;2023-09-07T14:14:18;28.00;84.50
43671;DHT22;29267;50.906;7.248;2023-09-07T14:16:43;28.00;83.70
43671;DHT22;29267;50.906;7.248;2023-09-07T14:19:10;28.10;83.30
43671;DHT22;29267;50.906;7.248;2023-09-07T14:21:35;28.10;83.00
43671;DHT22;29267;50.906;7.248;2023-09-07T14:24:01;28.20;84.10
43671;DHT22;29267;50.906;7.248;2023-09-07T14:26:29;28.20;85.40
43671;DHT22;29267;50.906;7.248;2023-09-07T14:28:55;28.20;84.30
43671;DHT22;29267;50.906;7.248;2023-09-07T14:31:20;28.20;85.20
43671;DHT22;29267;50.906;7.248;2023-09-07T14:33:46;28.20;83.00
43671;DHT22;29267;50.906;7.248;2023-09-07T14:36:11;28.10;83.60
43671;DHT22;29267;50.906;7.248;2023-09-07T14:38:37;28.10;84.00
43671;DHT22;29267;50.906;7.248;2023-09-07T14:41:07;28.00;82.20
43671;DHT22;29267;50.906;7.248;2023-09-07T14:43:33;27.90;84.50
43671;DHT22;29267;50.906;7.248;2023-09-07T14:45:59;27.90;82.60
43671;DHT22;29267;50.906;7.248;2023-09-07T14:48:25;27.90;81.90
43671;DHT22;29267;50.906;7.248;2023-09-07T14:50:50;27.90;81.20
43671;DHT22;29267;50.906;7.248;2023-09-07T14:53:16;27.90;81.70
43671;DHT22;29267;50.906;7.248;2023-09-07T14:55:43;27.90;80.90
43671;DHT22;29267;50.906;7.248;2023-09-07T14:58:09;27.90;81.50
43671;DHT22;29267;50.906;7.248;2023-09-07T15:00:35;27.80;81.10
43671;DHT22;29267;50.906;7.248;2023-09-07T15:03:01;27.90;79.50
43671;DHT22;29267;50.906;7.248;2023-09-07T15:05:27;27.90;80.70
43671;DHT22;29267;50.906;7.248;2023-09-07T15:07:53;27.90;81.90
43671;DHT22;29267;50.906;7.248;2023-09-07T15:10:19;27.90;81.10
43671;DHT22;29267;50.906;7.248;2023-09-07T15:12:45;27.90;80.60
43671;DHT22;29267;50.906;7.248;2023-09-07T15:15:10;27.90;81.80
43671;DHT22;29267;50.906;7.248;2023-09-07T15:17:38;27.90;82.60
43671;DHT22;29267;50.906;7.248;2023-09-07T15:20:06;27.90;82.70
43671;DHT22;29267;50.906;7.248;2023-09-07T15:22:31;27.80;83.50
43671;DHT22;29267;50.906;7.248;2023-09-07T15:24:59;27.80;83.00
43671;DHT22;29267;50.906;7.248;2023-09-07T15:27:26;27.70;84.00